createdAt,value
2022-10-18T00:26:07.254Z,67.72
2022-10-18T00:47:57.201Z,67.87
2022-10-18T01:09:48.425Z,66.87
2022-10-18T01:41:04.281Z,68.24
2022-10-18T02:02:53.886Z,68.21
2022-10-18T02:24:44.610Z,69.03
2022-10-18T02:46:30.463Z,69.59
2022-10-18T03:08:16.280Z,70.44
2022-10-18T03:30:02.158Z,70.81
2022-10-18T03:51:47.825Z,71.07
2022-10-18T04:13:33.606Z,71.84
2022-10-18T04:35:19.900Z,72.65
2022-10-18T04:57:06.080Z,72.81
2022-10-18T05:18:51.917Z,73.24
2022-10-18T05:40:39.336Z,74.11
2022-10-18T06:02:25.101Z,74.55
2022-10-18T06:24:11.378Z,74.77
2022-10-18T06:45:57.382Z,74.92
2022-10-18T07:07:43.227Z,73.57
2022-10-18T07:29:29.065Z,71.24
2022-10-18T07:51:15.304Z,68.75
2022-10-18T08:13:00.971Z,57.87
2022-10-18T08:34:46.745Z,41.34
2022-10-18T08:56:34.132Z,32.34
2022-10-18T09:18:47.532Z,27.19
2022-10-18T09:40:39.662Z,24.04
2022-10-18T10:02:26.062Z,25.47
2022-10-18T10:24:24.995Z,26.02
2022-10-18T10:46:16.187Z,33.48
2022-10-18T11:08:06.166Z,38.61
2022-10-18T11:30:05.300Z,43.08
2022-10-18T11:52:08.340Z,45.40
2022-10-18T12:13:59.022Z,44.89
2022-10-18T12:35:56.420Z,45.48
2022-10-18T12:58:06.075Z,46.26
2022-10-18T13:20:23.964Z,48.14
2022-10-18T13:42:34.209Z,48.21
2022-10-18T14:05:10.796Z,46.77
2022-10-18T14:27:19.307Z,49.52
2022-10-18T14:49:07.870Z,61.64
2022-10-18T15:10:54.884Z,68.91
2022-10-18T15:32:48.359Z,76.10
2022-10-18T15:54:34.083Z,79.78
2022-10-18T16:16:22.989Z,80.47
2022-10-18T16:38:14.861Z,81.02
2022-10-18T17:00:00.659Z,81.18
2022-10-18T17:21:46.552Z,81.21
2022-10-18T17:43:32.399Z,81.64
2022-10-18T18:05:18.162Z,82.26
2022-10-18T18:27:03.939Z,82.37
2022-10-18T18:48:51.398Z,83.07
2022-10-18T19:10:37.526Z,83.19
2022-10-18T19:32:23.329Z,82.49
2022-10-18T19:54:09.140Z,82.96
2022-10-18T20:26:06.497Z,83.11
2022-10-18T20:47:52.237Z,82.57
2022-10-18T21:09:37.966Z,82.94
2022-10-18T21:41:11.192Z,83.66
2022-10-18T22:03:10.283Z,83.56
2022-10-18T22:24:56.437Z,83.67
2022-10-18T22:46:45.572Z,83.10
2022-10-18T23:26:00.805Z,83.84
2022-10-18T23:47:46.536Z,82.79
